Time;durP1;ratioP1;P1;durP2;ratioP2;P2;SDS_P1;SDS_P2;PMS_P1;PMS_P2;Temp;Humidity;BMP_temperature;BMP_pressure;BME280_temperature;BME280_humidity;BME280_pressure;Samples;Min_cycle;Max_cycle;Signal;HPM_P1;HPM_P2
2021/10/25 00:00:04;;;;;;;;;;;;;;;3.79;83.05;102337.52;1903458;75;20150;-63
2021/10/25 00:02:34;;;;;;;;;;;;;;;3.74;83.22;102334.83;1902623;75;20126;-63
2021/10/25 00:05:02;;;;;;;;;;;;;;;3.72;83.26;102339.58;1903475;75;20112;-63
2021/10/25 00:07:30;;;;;;;;;;;;;;;3.65;83.25;102338.59;1903566;75;20224;-63
2021/10/25 00:09:57;;;;;;;;;;;;;;;3.62;83.14;102341.17;1903475;75;20115;-63
2021/10/25 00:12:26;;;;;;;;;;;;;;;3.58;83.19;102341.95;1903473;75;20162;-63
2021/10/25 00:14:55;;;;;;;;;;;;;;;3.59;83.08;102343.72;1903600;75;20444;-63
2021/10/25 00:17:23;;;;;;;;;;;;;;;3.58;82.93;102345.86;1903476;75;20119;-63
2021/10/25 00:19:51;;;;;;;;;;;;;;;3.57;83.02;102346.73;1903570;75;20137;-63
2021/10/25 00:22:20;;;;;;;;;;;;;;;3.52;83.19;102338.83;1903461;75;20119;-63
2021/10/25 00:24:47;;;;;;;;;;;;;;;3.50;83.19;102343.58;1903475;74;20115;-63
2021/10/25 00:27:15;;;;;;;;;;;;;;;3.46;83.26;102347.42;1903584;75;20158;-63
2021/10/25 00:29:43;;;;;;;;;;;;;;;3.43;83.49;102346.09;1903488;75;20111;-63
2021/10/25 00:32:11;;;;;;;;;;;;;;;3.37;83.72;102355.52;1903332;75;20123;-63
2021/10/25 00:34:39;;;;;;;;;;;;;;;3.32;83.85;102356.77;1903551;75;20153;-62
2021/10/25 00:37:07;;;;;;;;;;;;;;;3.31;83.91;102349.79;1903507;74;20116;-63
2021/10/25 00:39:35;;;;;;;;;;;;;;;3.33;83.94;102349.39;1903526;75;20200;-63
2021/10/25 00:42:03;;;;;;;;;;;;;;;3.31;84.17;102354.99;1903532;74;20107;-63
2021/10/25 00:44:32;;;;;;;;;;;;;;;3.29;84.21;102355.40;1903441;75;20141;-62
2021/10/25 00:47:00;;;;;;;;;;;;;;;3.30;84.10;102354.53;1903360;74;20119;-63
2021/10/25 00:49:27;;;;;;;;;;;;;;;3.28;84.05;102352.33;1903399;75;20220;-62
2021/10/25 00:51:56;;;;;;;;;;;;;;;3.30;83.84;102357.13;1903481;75;20123;-62
2021/10/25 00:54:24;;;;;;;;;;;;;;;3.22;83.77;102358.31;1903639;75;20091;-62
2021/10/25 00:56:54;;;;;;;;;;;;;;;3.20;83.83;102364.35;1903434;75;20424;-62
2021/10/25 00:59:21;;;;;;;;;;;;;;;3.23;83.74;102363.98;1903442;75;20119;-63
2021/10/25 01:01:49;;;;;;;;;;;;;;;3.30;83.62;102359.73;1903413;75;20115;-63
2021/10/25 01:04:20;;;;;;;;;;;;;;;3.34;83.58;102361.97;1903454;75;20149;-62
2021/10/25 01:06:47;;;;;;;;;;;;;;;3.39;83.51;102363.80;1903434;75;20118;-64
2021/10/25 01:09:16;;;;;;;;;;;;;;;3.42;83.44;102371.67;1903432;75;20451;-63
2021/10/25 01:11:44;;;;;;;;;;;;;;;3.43;83.42;102377.34;1903402;75;20426;-63
2021/10/25 01:14:12;;;;;;;;;;;;;;;3.47;83.44;102376.53;1903369;75;20224;-63
2021/10/25 01:16:40;;;;;;;;;;;;;;;3.50;83.52;102369.19;1903486;75;20142;-63
2021/10/25 01:19:09;;;;;;;;;;;;;;;3.49;83.41;102368.75;1903402;75;20385;-63
2021/10/25 01:21:37;;;;;;;;;;;;;;;3.46;83.43;102374.77;1903418;75;20115;-63
2021/10/25 01:24:05;;;;;;;;;;;;;;;3.43;83.51;102381.66;1903449;75;20146;-63
2021/10/25 01:26:33;;;;;;;;;;;;;;;3.39;83.55;102378.12;1903608;75;20123;-62
2021/10/25 01:29:01;;;;;;;;;;;;;;;3.37;83.60;102382.42;1903535;75;20115;-62
2021/10/25 01:31:29;;;;;;;;;;;;;;;3.40;83.59;102384.23;1899886;74;20107;-62
2021/10/25 01:33:58;;;;;;;;;;;;;;;3.44;83.57;102393.84;1880657;76;20123;-62
2021/10/25 01:36:28;;;;;;;;;;;;;;;3.44;83.55;102394.70;1880283;76;20147;-63
2021/10/25 01:38:56;;;;;;;;;;;;;;;3.47;83.54;102393.47;1880565;76;20197;-64
2021/10/25 01:41:24;;;;;;;;;;;;;;;3.51;83.48;102389.63;1880692;76;20115;-63
2021/10/25 01:43:52;;;;;;;;;;;;;;;3.53;83.58;102400.50;1880595;76;20095;-63
2021/10/25 01:46:20;;;;;;;;;;;;;;;3.57;83.45;102412.72;1880682;75;20142;-63
2021/10/25 01:48:48;;;;;;;;;;;;;;;3.63;83.41;102411.54;1880750;76;20115;-63
2021/10/25 01:51:18;;;;;;;;;;;;;;;3.72;83.31;102415.12;1880598;76;20193;-63
2021/10/25 01:53:46;;;;;;;;;;;;;;;3.80;83.40;102417.02;1880544;76;20540;-63
2021/10/25 01:56:15;;;;;;;;;;;;;;;3.83;83.38;102427.91;1880614;76;20119;-64
2021/10/25 01:58:43;;;;;;;;;;;;;;;3.84;83.23;102414.03;1880610;76;20134;-63
2021/10/25 02:01:13;;;;;;;;;;;;;;;3.85;83.13;102415.77;1880620;76;20126;-62
2021/10/25 02:03:41;;;;;;;;;;;;;;;3.83;83.08;102422.25;1880697;76;20115;-62
2021/10/25 02:06:10;;;;;;;;;;;;;;;3.79;83.06;102418.29;1880032;76;20140;-62
2021/10/25 02:08:39;;;;;;;;;;;;;;;3.75;83.11;102420.41;1880597;76;20114;-62
2021/10/25 02:11:07;;;;;;;;;;;;;;;3.73;83.27;102418.20;1880667;76;20115;-62
2021/10/25 02:13:37;;;;;;;;;;;;;;;3.75;83.28;102423.01;1880593;76;20221;-62
2021/10/25 02:16:06;;;;;;;;;;;;;;;3.78;83.28;102422.63;1880595;75;20451;-63
2021/10/25 02:18:35;;;;;;;;;;;;;;;3.80;83.29;102427.44;1880619;76;20432;-64
2021/10/25 02:21:04;;;;;;;;;;;;;;;3.84;83.46;102425.33;1879812;76;20261;-63
2021/10/25 02:23:32;;;;;;;;;;;;;;;3.94;83.29;102426.34;1880644;75;20115;-63
2021/10/25 02:26:00;;;;;;;;;;;;;;;4.04;83.12;102427.38;1880583;76;20102;-63
2021/10/25 02:28:28;;;;;;;;;;;;;;;4.13;83.03;102432.73;1880731;75;20150;-63
2021/10/25 02:30:57;;;;;;;;;;;;;;;4.21;82.89;102431.09;1880579;76;20099;-63
2021/10/25 02:33:26;;;;;;;;;;;;;;;4.31;82.75;102440.35;1879895;75;20265;-63
2021/10/25 02:35:54;;;;;;;;;;;;;;;4.38;82.63;102445.67;1880519;76;20115;-64
2021/10/25 02:38:23;;;;;;;;;;;;;;;4.46;82.56;102453.59;1880704;75;20389;-63
2021/10/25 02:40:55;;;;;;;;;;;;;;;4.50;82.59;102450.60;1860978;76;20428;-63
2021/10/25 02:43:23;;;;;;;;;;;;;;;4.50;82.61;102448.89;1880532;76;20405;-63
2021/10/25 02:45:53;;;;;;;;;;;;;;;4.55;82.51;102444.59;1880476;76;20119;-63
2021/10/25 02:48:21;;;;;;;;;;;;;;;4.62;82.39;102447.73;1880584;76;20397;-63
2021/10/25 02:50:49;;;;;;;;;;;;;;;4.69;82.30;102450.44;1880617;76;20118;-62
2021/10/25 02:53:17;;;;;;;;;;;;;;;4.74;82.24;102448.73;1880738;76;20138;-62
2021/10/25 02:55:45;;;;;;;;;;;;;;;4.78;82.24;102448.81;1880611;76;20115;-62
2021/10/25 02:58:13;;;;;;;;;;;;;;;4.79;82.10;102446.63;1880536;76;20111;-63
2021/10/25 03:00:43;;;;;;;;;;;;;;;4.78;81.99;102442.73;1880557;75;20199;-62
2021/10/25 03:03:11;;;;;;;;;;;;;;;4.80;81.91;102433.17;1880607;76;20123;-62
2021/10/25 03:05:39;;;;;;;;;;;;;;;4.81;81.88;102425.38;1880631;76;20123;-62
2021/10/25 03:08:08;;;;;;;;;;;;;;;4.85;81.82;102428.89;1880579;75;20107;-63
2021/10/25 03:10:37;;;;;;;;;;;;;;;4.86;81.79;102433.67;1880707;76;20107;-62
2021/10/25 03:13:06;;;;;;;;;;;;;;;4.87;81.69;102434.11;1880515;76;20115;-62
2021/10/25 03:15:34;;;;;;;;;;;;;;;4.88;81.62;102431.52;1880629;76;20119;-63
2021/10/25 03:18:04;;;;;;;;;;;;;;;4.91;81.58;102442.00;1880213;76;20150;-62
2021/10/25 03:20:34;;;;;;;;;;;;;;;4.96;81.51;102445.55;1880514;75;20135;-62
2021/10/25 03:23:02;;;;;;;;;;;;;;;5.00;81.45;102439.50;1880557;76;20111;-62
2021/10/25 03:25:31;;;;;;;;;;;;;;;5.05;81.35;102427.78;1880480;76;20145;-62
2021/10/25 03:27:59;;;;;;;;;;;;;;;5.09;81.18;102428.30;1880558;76;20142;-61
2021/10/25 03:30:28;;;;;;;;;;;;;;;5.13;81.07;102432.68;1880737;76;20127;-63
2021/10/25 03:32:56;;;;;;;;;;;;;;;5.17;80.98;102440.12;1887149;75;20115;-64
2021/10/25 03:35:38;;;;;;;;;;;;;;;5.19;80.98;102443.18;1903528;75;20118;-63
2021/10/25 03:38:10;;;;;;;;;;;;;;;5.21;80.95;102446.68;1903304;75;20145;-62
2021/10/25 03:40:39;;;;;;;;;;;;;;;5.22;80.89;102458.02;1903569;75;20173;-62
2021/10/25 03:43:08;;;;;;;;;;;;;;;5.22;80.87;102452.36;1903566;75;20198;-62
2021/10/25 03:45:41;;;;;;;;;;;;;;;5.21;80.81;102458.88;1903509;75;20150;-63
2021/10/25 03:48:15;;;;;;;;;;;;;;;5.21;80.79;102453.65;1903129;75;20150;-63
2021/10/25 03:50:37;;;;;;;;;;;;;;;5.20;80.76;102449.27;1902237;75;20347;-63
2021/10/25 03:53:13;;;;;;;;;;;;;;;5.19;80.70;102455.37;1899771;75;20166;-62
2021/10/25 03:55:50;;;;;;;;;;;;;;;5.20;80.66;102454.49;1902867;74;20162;-62
2021/10/25 04:01:13;;;;;;;;;;;;;;;5.19;80.39;102461.90;1903393;75;20147;-63
2021/10/25 04:25:57;;;;;;;;;;;;;;;5.50;80.12;102487.05;1903377;74;20181;-63
2021/10/25 04:28:22;;;;;;;;;;;;;;;5.57;80.04;102494.05;1901953;75;20590;-63
2021/10/25 04:30:58;;;;;;;;;;;;;;;5.64;80.01;102494.56;1902499;75;20119;-63
2021/10/25 04:33:16;;;;;;;;;;;;;;;5.69;79.93;102494.19;1879973;75;20118;-64
2021/10/25 04:35:46;;;;;;;;;;;;;;;5.75;79.94;102502.51;1907118;75;20143;-65
2021/10/25 04:38:25;;;;;;;;;;;;;;;5.80;79.93;102514.76;1907463;74;20934;-65
2021/10/25 04:40:53;;;;;;;;;;;;;;;5.87;79.91;102513.53;1910048;75;20115;-64
2021/10/25 04:43:21;;;;;;;;;;;;;;;5.91;79.83;102513.55;1910069;75;20107;-64
2021/10/25 04:45:49;;;;;;;;;;;;;;;5.96;79.77;102518.88;1910026;75;20114;-64
2021/10/25 04:48:18;;;;;;;;;;;;;;;5.98;79.74;102521.06;1910136;75;20166;-64
2021/10/25 04:50:47;;;;;;;;;;;;;;;6.01;79.70;102522.38;1906951;75;20165;-65
2021/10/25 04:53:20;;;;;;;;;;;;;;;6.01;79.70;102523.69;1905682;75;20122;-64
2021/10/25 04:55:47;;;;;;;;;;;;;;;6.04;79.63;102530.70;1910044;74;20432;-64
2021/10/25 04:58:15;;;;;;;;;;;;;;;6.05;79.56;102533.33;1910135;74;20119;-64
2021/10/25 05:01:05;;;;;;;;;;;;;;;6.08;79.55;102539.00;1765704;81;20169;-65
2021/10/25 05:03:35;;;;;;;;;;;;;;;6.11;79.50;102545.14;1789730;80;20131;-65
2021/10/25 05:06:03;;;;;;;;;;;;;;;6.13;79.43;102546.02;1789779;80;20390;-63
2021/10/25 05:08:31;;;;;;;;;;;;;;;6.14;79.38;102549.10;1789812;80;20390;-63
2021/10/25 05:10:59;;;;;;;;;;;;;;;6.17;79.35;102550.41;1789912;80;20167;-64
2021/10/25 05:13:26;;;;;;;;;;;;;;;6.23;79.37;102553.95;1789893;80;20127;-63
2021/10/25 05:15:55;;;;;;;;;;;;;;;6.27;79.39;102558.33;1789758;80;20111;-64
2021/10/25 05:18:22;;;;;;;;;;;;;;;6.33;79.39;102564.95;1789808;80;20183;-65
2021/10/25 05:20:51;;;;;;;;;;;;;;;6.37;79.35;102560.17;1789848;80;20123;-63
2021/10/25 05:23:21;;;;;;;;;;;;;;;6.43;79.32;102554.97;1789695;80;20157;-64
2021/10/25 05:25:50;;;;;;;;;;;;;;;6.49;79.31;102555.04;1789847;80;20166;-63
2021/10/25 05:28:18;;;;;;;;;;;;;;;6.62;79.25;102569.09;1789798;80;20124;-63
2021/10/25 05:30:46;;;;;;;;;;;;;;;6.75;79.11;102572.63;1789741;80;20198;-64
2021/10/25 05:33:15;;;;;;;;;;;;;;;7.15;79.11;102580.71;1788456;80;20127;-63
2021/10/25 05:35:43;;;;;;;;;;;;;;;8.12;78.81;102580.53;1789798;80;20111;-63
2021/10/25 05:38:12;;;;;;;;;;;;;;;8.92;77.83;102582.69;1789877;80;20155;-64
2021/10/25 05:40:41;;;;;;;;;;;;;;;9.39;77.38;102582.97;1789806;80;20123;-63
2021/10/25 05:43:08;;;;;;;;;;;;;;;9.36;76.46;102584.28;1789708;80;20167;-63
2021/10/25 05:45:37;;;;;;;;;;;;;;;9.33;76.08;102586.91;1789781;80;20154;-63
2021/10/25 05:48:05;;;;;;;;;;;;;;;9.33;75.71;102586.47;1789866;80;20158;-63
2021/10/25 05:50:33;;;;;;;;;;;;;;;9.44;75.47;102591.27;1789918;80;20154;-64
2021/10/25 05:53:01;;;;;;;;;;;;;;;9.89;75.13;102598.90;1789690;80;20123;-64
2021/10/25 05:55:30;;;;;;;;;;;;;;;10.18;74.84;102593.43;1789666;80;20178;-65
2021/10/25 05:57:59;;;;;;;;;;;;;;;10.59;74.17;102594.00;1789964;80;20131;-64
2021/10/25 06:00:31;;;;;;;;;;;;;;;11.13;73.32;102598.23;1805789;78;20118;-64
2021/10/25 06:02:58;;;;;;;;;;;;;;;11.78;72.41;102594.76;1821428;78;20120;-64
2021/10/25 06:05:30;;;;;;;;;;;;;;;12.17;72.04;102599.03;1790372;80;20163;-64
2021/10/25 06:08:00;;;;;;;;;;;;;;;11.97;69.08;102591.45;1827167;79;20164;-64
2021/10/25 06:10:31;;;;;;;;;;;;;;;11.55;68.09;102597.28;1826997;79;20192;-64
2021/10/25 06:13:01;;;;;;;;;;;;;;;11.62;69.25;102600.72;1817482;79;20125;-64
2021/10/25 06:15:44;;;;;;;;;;;;;;;11.58;70.15;102602.52;1809459;79;20120;-64
2021/10/25 06:18:12;;;;;;;;;;;;;;;11.61;70.65;102606.02;1817561;79;20154;-64
2021/10/25 06:20:41;;;;;;;;;;;;;;;11.51;70.84;102608.77;1821224;79;20160;-64
2021/10/25 06:23:12;;;;;;;;;;;;;;;11.85;70.92;102610.94;1788844;80;20150;-63
2021/10/25 06:25:42;;;;;;;;;;;;;;;12.91;70.64;102601.28;1826897;78;20154;-63
2021/10/25 06:28:11;;;;;;;;;;;;;;;13.69;69.04;102604.56;1817088;79;20120;-64
2021/10/25 06:30:41;;;;;;;;;;;;;;;14.24;69.28;102599.75;1789243;80;20138;-65
2021/10/25 06:33:12;;;;;;;;;;;;;;;14.78;68.91;102605.02;1826859;78;20184;-64
2021/10/25 06:35:42;;;;;;;;;;;;;;;15.14;67.10;102603.56;1815000;79;20124;-65
2021/10/25 06:38:31;;;;;;;;;;;;;;;15.20;67.27;102607.39;1809844;79;20417;-63
2021/10/25 06:40:59;;;;;;;;;;;;;;;15.14;66.89;102600.91;1790130;80;20123;-63
2021/10/25 06:43:28;;;;;;;;;;;;;;;14.56;67.01;102605.53;1800437;79;20150;-63
2021/10/25 06:45:57;;;;;;;;;;;;;;;14.18;67.47;102615.31;1785847;80;20419;-63
2021/10/25 06:48:25;;;;;;;;;;;;;;;14.07;67.73;102614.70;1785789;80;20208;-63
2021/10/25 06:50:53;;;;;;;;;;;;;;;13.71;67.03;102614.66;1785784;80;20432;-63
2021/10/25 06:53:23;;;;;;;;;;;;;;;13.44;67.88;102622.27;1827042;79;20433;-64
2021/10/25 06:56:08;;;;;;;;;;;;;;;13.25;68.11;102617.80;1788342;79;20109;-63
2021/10/25 06:58:36;;;;;;;;;;;;;;;14.29;67.12;102613.30;1817672;79;20447;-63
2021/10/25 07:01:06;;;;;;;;;;;;;;;15.67;66.06;102613.05;1821207;79;20122;-62
2021/10/25 07:03:35;;;;;;;;;;;;;;;16.65;63.99;102604.14;1790188;80;20452;-63
2021/10/25 07:06:04;;;;;;;;;;;;;;;16.65;64.18;102604.14;1826991;79;20113;-63
2021/10/25 07:08:34;;;;;;;;;;;;;;;16.01;64.42;102604.08;1817487;79;20117;-63
2021/10/25 07:11:02;;;;;;;;;;;;;;;15.43;65.01;102620.83;1821258;79;20415;-62
2021/10/25 07:13:31;;;;;;;;;;;;;;;15.01;65.50;102621.61;1790299;80;20111;-62
2021/10/25 07:16:04;;;;;;;;;;;;;;;14.79;65.65;102618.67;1827127;77;20176;-63
2021/10/25 07:21:30;;;;;;;;;;;;;;;14.18;66.48;102620.61;1821198;79;20636;-63
2021/10/25 08:08:38;;;;;;;;;;;;;;;18.63;52.93;102631.62;1869897;77;20200;-61
2021/10/25 08:10:42;;;;;;;;;;;;;;;18.42;53.02;102634.71;1900710;74;20119;-62
2021/10/25 08:13:14;;;;;;;;;;;;;;;17.84;54.84;102641.46;1902440;75;20140;-62
2021/10/25 08:15:42;;;;;;;;;;;;;;;17.14;55.70;102643.68;1902514;75;20146;-61
2021/10/25 08:19:22;;;;;;;;;;;;;;;16.54;57.18;102643.97;1902512;75;20112;-62
2021/10/25 08:20:50;;;;;;;;;;;;;;;16.01;58.25;102652.77;1867231;75;20116;-62
2021/10/25 08:23:19;;;;;;;;;;;;;;;15.60;59.05;102655.31;1902519;75;20382;-62
2021/10/25 08:25:47;;;;;;;;;;;;;;;15.21;59.78;102653.75;1902426;75;20127;-62
2021/10/25 08:28:17;;;;;;;;;;;;;;;14.92;60.07;102649.28;1902414;75;20132;-62
2021/10/25 08:30:47;;;;;;;;;;;;;;;14.77;60.31;102653.64;1902408;75;20152;-62
2021/10/25 08:36:09;;;;;;;;;;;;;;;15.08;59.15;102664.77;1902849;75;20115;-62
2021/10/25 08:41:28;;;;;;;;;;;;;;;14.65;59.66;102664.98;1902610;75;20143;-63
2021/10/25 08:43:57;;;;;;;;;;;;;;;14.43;60.22;102661.97;1902645;75;20123;-63
2021/10/25 08:46:27;;;;;;;;;;;;;;;14.23;60.60;102662.44;1902586;75;20465;-63
2021/10/25 08:48:55;;;;;;;;;;;;;;;13.88;60.74;102657.96;1902564;74;20120;-63
2021/10/25 08:51:26;;;;;;;;;;;;;;;13.61;60.71;102658.10;1902712;75;20104;-63
2021/10/25 08:53:54;;;;;;;;;;;;;;;13.44;61.08;102654.03;1902724;74;20127;-63
2021/10/25 08:56:22;;;;;;;;;;;;;;;13.34;61.36;102655.14;1899134;75;20120;-63
2021/10/25 08:58:56;;;;;;;;;;;;;;;13.38;61.42;102663.42;1891707;76;20209;-63
2021/10/25 09:01:26;;;;;;;;;;;;;;;13.40;61.23;102657.65;1892979;76;20230;-63
2021/10/25 09:04:02;;;;;;;;;;;;;;;13.60;61.29;102659.89;1890560;76;20465;-63
2021/10/25 09:06:30;;;;;;;;;;;;;;;13.73;61.13;102654.34;1892964;76;20150;-63
2021/10/25 09:08:59;;;;;;;;;;;;;;;13.74;60.76;102652.09;1892989;76;20116;-64
2021/10/25 09:11:28;;;;;;;;;;;;;;;13.65;60.82;102653.19;1892957;76;20147;-63
2021/10/25 09:14:05;;;;;;;;;;;;;;;13.50;60.34;102652.60;1892155;76;20116;-63
2021/10/25 09:16:34;;;;;;;;;;;;;;;13.36;60.63;102655.97;1891609;76;20108;-63
2021/10/25 09:19:17;;;;;;;;;;;;;;;13.16;61.08;102648.86;1892933;76;20144;-63
2021/10/25 09:21:46;;;;;;;;;;;;;;;12.92;61.72;102652.38;1893047;76;20152;-63
2021/10/25 09:24:27;;;;;;;;;;;;;;;12.73;61.93;102654.48;1893158;76;20164;-64
2021/10/25 09:26:57;;;;;;;;;;;;;;;12.51;61.21;102655.30;1891996;76;20150;-64
2021/10/25 09:29:27;;;;;;;;;;;;;;;12.25;61.85;102657.91;1893031;76;20098;-63
2021/10/25 09:31:56;;;;;;;;;;;;;;;12.10;62.04;102658.16;1892903;76;20171;-63
2021/10/25 09:34:33;;;;;;;;;;;;;;;11.89;62.46;102658.82;1892887;76;20398;-65
2021/10/25 09:37:18;;;;;;;;;;;;;;;11.64;62.84;102664.00;1852976;76;20120;-63
2021/10/25 09:39:50;;;;;;;;;;;;;;;11.46;63.11;102662.48;1892849;76;20120;-63
2021/10/25 09:45:35;;;;;;;;;;;;;;;11.15;61.69;102682.14;1892665;76;20108;-63
2021/10/25 09:50:50;;;;;;;;;;;;;;;10.89;62.06;102681.55;1892187;76;20194;-63
2021/10/25 09:53:16;;;;;;;;;;;;;;;10.78;61.98;102679.86;1892790;76;20112;-63
2021/10/25 09:55:48;;;;;;;;;;;;;;;10.76;62.16;102682.96;1893042;76;20171;-63
2021/10/25 09:58:20;;;;;;;;;;;;;;;10.77;62.17;102683.83;1881129;75;20147;-63
2021/10/25 10:00:48;;;;;;;;;;;;;;;10.72;62.39;102687.83;1872054;75;20129;-63
2021/10/25 10:03:18;;;;;;;;;;;;;;;10.62;62.56;102684.83;1874485;77;20379;-63
2021/10/25 10:05:50;;;;;;;;;;;;;;;10.60;62.71;102682.66;1872563;76;20378;-63
2021/10/25 10:08:19;;;;;;;;;;;;;;;10.59;62.84;102691.47;1874566;77;20143;-63
2021/10/25 10:10:47;;;;;;;;;;;;;;;10.57;62.81;102684.02;1874531;77;20117;-63
2021/10/25 10:13:18;;;;;;;;;;;;;;;10.58;62.86;102680.03;1874285;76;20211;-63
2021/10/25 10:15:53;;;;;;;;;;;;;;;10.56;63.08;102683.58;1872678;76;20418;-63
2021/10/25 10:18:23;;;;;;;;;;;;;;;10.55;63.20;102676.55;1874380;77;20147;-64
2021/10/25 10:21:09;;;;;;;;;;;;;;;10.52;63.41;102680.54;1874441;77;20144;-63
2021/10/25 10:23:37;;;;;;;;;;;;;;;10.58;63.10;102672.58;1874483;77;20118;-63
2021/10/25 10:26:07;;;;;;;;;;;;;;;10.68;62.89;102675.58;1874421;77;20141;-63
2021/10/25 10:28:42;;;;;;;;;;;;;;;10.74;62.14;102678.16;1874113;76;20196;-63
2021/10/25 10:31:12;;;;;;;;;;;;;;;10.83;61.65;102678.52;1873913;75;20195;-63
2021/10/25 10:33:43;;;;;;;;;;;;;;;11.00;61.63;102680.98;1873373;76;20136;-64
2021/10/25 10:36:21;;;;;;;;;;;;;;;11.18;60.94;102679.48;1874582;77;20391;-63
2021/10/25 10:39:01;;;;;;;;;;;;;;;11.29;60.97;102679.38;1872683;76;20146;-64
2021/10/25 10:41:41;;;;;;;;;;;;;;;11.32;60.23;102673.18;1870541;77;20167;-63
2021/10/25 10:44:28;;;;;;;;;;;;;;;11.37;60.10;102672.69;1874499;77;20416;-63
2021/10/25 10:47:00;;;;;;;;;;;;;;;11.45;60.25;102679.19;1874505;77;20433;-62
2021/10/25 10:49:32;;;;;;;;;;;;;;;11.59;60.00;102678.58;1874554;77;20125;-63
2021/10/25 10:52:05;;;;;;;;;;;;;;;11.70;59.44;102681.09;1874466;77;20184;-62
2021/10/25 10:55:00;;;;;;;;;;;;;;;11.87;59.34;102679.09;1874503;77;20117;-63
2021/10/25 11:00:22;;;;;;;;;;;;;;;12.41;59.15;102692.00;1884030;76;20128;-63
2021/10/25 11:02:52;;;;;;;;;;;;;;;12.47;58.85;102681.36;1883918;74;20151;-62
2021/10/25 11:05:30;;;;;;;;;;;;;;;12.53;58.61;102685.21;1883945;76;20156;-62
2021/10/25 11:08:02;;;;;;;;;;;;;;;12.77;58.79;102690.99;1883874;76;20113;-63
2021/10/25 11:10:32;;;;;;;;;;;;;;;13.37;56.84;102680.22;1884065;76;20152;-62
2021/10/25 11:13:05;;;;;;;;;;;;;;;14.19;55.52;102683.30;1883959;74;20404;-63
2021/10/25 11:15:40;;;;;;;;;;;;;;;15.06;54.64;102690.87;1883940;76;20375;-62
2021/10/25 11:18:06;;;;;;;;;;;;;;;15.49;54.18;102687.95;1883611;76;20202;-62
2021/10/25 11:20:35;;;;;;;;;;;;;;;16.27;53.46;102676.75;1884070;76;20125;-62
2021/10/25 11:23:04;;;;;;;;;;;;;;;16.82;52.01;102678.03;1883865;76;20100;-62
2021/10/25 11:25:44;;;;;;;;;;;;;;;16.72;51.92;102681.02;1884118;76;20398;-62
2021/10/25 11:28:13;;;;;;;;;;;;;;;16.23;51.99;102677.77;1884005;76;20116;-62
2021/10/25 11:30:42;;;;;;;;;;;;;;;15.70;53.26;102688.66;1883772;76;20117;-62
2021/10/25 11:33:09;;;;;;;;;;;;;;;15.35;53.92;102687.88;1883979;76;20108;-62
2021/10/25 11:35:40;;;;;;;;;;;;;;;15.01;52.98;102690.58;1883857;76;20147;-62
2021/10/25 11:38:08;;;;;;;;;;;;;;;14.70;53.16;102687.42;1882678;75;20120;-62
2021/10/25 11:40:38;;;;;;;;;;;;;;;14.59;53.86;102689.01;1883948;76;20187;-62
2021/10/25 11:43:06;;;;;;;;;;;;;;;14.75;53.49;102684.63;1884117;75;20235;-63
2021/10/25 11:45:34;;;;;;;;;;;;;;;14.60;53.72;102687.22;1883915;76;20113;-62
2021/10/25 11:48:02;;;;;;;;;;;;;;;14.28;54.26;102692.36;1883827;76;20105;-63
2021/10/25 11:50:31;;;;;;;;;;;;;;;14.01;54.79;102686.37;1883992;76;20192;-62
2021/10/25 11:53:04;;;;;;;;;;;;;;;13.81;55.26;102687.66;1883915;76;20406;-62
2021/10/25 11:55:40;;;;;;;;;;;;;;;13.62;55.79;102690.30;1883929;76;20120;-62
2021/10/25 11:58:09;;;;;;;;;;;;;;;13.24;56.11;102690.56;1887518;75;20121;-62
2021/10/25 12:00:39;;;;;;;;;;;;;;;12.91;56.73;102687.20;1892798;76;20504;-62
2021/10/25 12:03:23;;;;;;;;;;;;;;;12.69;57.25;102694.63;1882502;75;20104;-62
2021/10/25 12:05:52;;;;;;;;;;;;;;;12.55;57.46;102700.13;1892978;76;20139;-62
2021/10/25 12:08:20;;;;;;;;;;;;;;;12.69;57.74;102702.56;1892842;76;20101;-62
2021/10/25 12:10:50;;;;;;;;;;;;;;;12.81;57.45;102700.61;1892810;76;20374;-63
2021/10/25 12:13:18;;;;;;;;;;;;;;;12.82;57.51;102712.48;1892942;76;20112;-62
2021/10/25 12:15:58;;;;;;;;;;;;;;;12.71;57.56;102712.66;1892867;76;20159;-62
2021/10/25 12:18:20;;;;;;;;;;;;;;;12.56;57.83;102716.88;1891712;76;20124;-62
2021/10/25 12:20:49;;;;;;;;;;;;;;;12.38;58.09;102723.31;1892887;76;20387;-62
2021/10/25 12:23:18;;;;;;;;;;;;;;;12.31;58.23;102724.30;1892831;76;20379;-62
2021/10/25 12:25:58;;;;;;;;;;;;;;;12.16;58.37;102721.43;1893052;76;20124;-62
2021/10/25 12:28:26;;;;;;;;;;;;;;;12.03;58.54;102731.73;1892805;76;20465;-62
2021/10/25 12:31:07;;;;;;;;;;;;;;;11.93;58.72;102730.54;1892877;76;20116;-62
2021/10/25 12:33:37;;;;;;;;;;;;;;;11.84;59.10;102730.63;1892969;75;20414;-62
2021/10/25 12:36:16;;;;;;;;;;;;;;;11.78;59.42;102734.22;1892793;76;20842;-62
2021/10/25 12:38:46;;;;;;;;;;;;;;;11.73;59.70;102742.63;1892890;76;20147;-62
2021/10/25 12:41:13;;;;;;;;;;;;;;;11.65;59.93;102734.36;1892966;76;20375;-62
2021/10/25 12:43:49;;;;;;;;;;;;;;;11.53;60.00;102738.89;1893021;76;20147;-62
2021/10/25 12:46:22;;;;;;;;;;;;;;;11.44;60.50;102736.36;1892867;76;20120;-63
2021/10/25 12:48:51;;;;;;;;;;;;;;;11.42;60.49;102742.09;1892790;76;20112;-62
2021/10/25 12:51:19;;;;;;;;;;;;;;;11.32;60.61;102740.43;1892787;76;20108;-62
2021/10/25 12:53:50;;;;;;;;;;;;;;;11.26;60.76;102737.87;1892840;76;20117;-63
2021/10/25 12:56:25;;;;;;;;;;;;;;;11.16;60.97;102747.19;1892947;76;20108;-63
2021/10/25 12:59:04;;;;;;;;;;;;;;;11.07;61.24;102746.41;1889436;75;20386;-63
2021/10/25 13:01:32;;;;;;;;;;;;;;;11.00;61.48;102742.94;1886416;76;20108;-63
2021/10/25 13:04:01;;;;;;;;;;;;;;;11.00;61.50;102742.94;1886322;76;20116;-63
2021/10/25 13:06:32;;;;;;;;;;;;;;;10.92;61.65;102747.38;1886304;76;20121;-64
2021/10/25 13:09:00;;;;;;;;;;;;;;;10.87;61.77;102749.20;1886260;76;20143;-64
2021/10/25 13:11:28;;;;;;;;;;;;;;;10.78;61.93;102742.23;1886238;76;20129;-64
2021/10/25 13:13:59;;;;;;;;;;;;;;;10.75;62.03;102748.42;1886328;75;20180;-63
2021/10/25 13:16:34;;;;;;;;;;;;;;;10.73;62.02;102744.03;1886430;76;20386;-63
2021/10/25 13:19:18;;;;;;;;;;;;;;;10.67;62.04;102751.54;1886032;76;20120;-64
2021/10/25 13:21:47;;;;;;;;;;;;;;;10.60;62.18;102749.41;1872972;77;20117;-64
2021/10/25 13:24:15;;;;;;;;;;;;;;;10.56;62.26;102746.34;1873078;77;20105;-64
2021/10/25 13:26:43;;;;;;;;;;;;;;;10.51;62.40;102752.53;1873079;77;20148;-64
2021/10/25 13:29:10;;;;;;;;;;;;;;;10.49;62.45;102752.98;1873075;77;20121;-64
2021/10/25 13:31:38;;;;;;;;;;;;;;;10.47;62.49;102754.76;1873195;77;20105;-64
2021/10/25 13:34:06;;;;;;;;;;;;;;;10.43;62.56;102748.63;1873183;76;20117;-64
2021/10/25 13:36:34;;;;;;;;;;;;;;;10.43;62.50;102754.77;1873009;76;20200;-63
2021/10/25 13:39:03;;;;;;;;;;;;;;;10.47;62.41;102757.39;1873049;77;20113;-64
2021/10/25 13:41:31;;;;;;;;;;;;;;;10.45;62.43;102759.16;1873062;77;20117;-64
2021/10/25 13:44:00;;;;;;;;;;;;;;;10.38;62.57;102760.53;1850983;76;20121;-64
2021/10/25 13:46:29;;;;;;;;;;;;;;;10.30;62.77;102760.96;1873029;76;20145;-65
2021/10/25 13:48:56;;;;;;;;;;;;;;;10.27;62.88;102760.97;1872947;77;20153;-64
2021/10/25 13:51:24;;;;;;;;;;;;;;;10.29;62.93;102769.77;1873065;76;20117;-64
2021/10/25 13:53:52;;;;;;;;;;;;;;;10.27;62.78;102762.28;1873097;77;20157;-63
2021/10/25 13:56:20;;;;;;;;;;;;;;;10.23;62.70;102761.42;1873040;77;20139;-63
2021/10/25 13:58:47;;;;;;;;;;;;;;;10.19;62.73;102766.28;1873078;77;20168;-64
2021/10/25 14:01:15;;;;;;;;;;;;;;;10.15;62.73;102775.08;1873062;76;20121;-62
2021/10/25 14:03:45;;;;;;;;;;;;;;;10.11;62.78;102772.48;1872984;77;20195;-63
2021/10/25 14:06:15;;;;;;;;;;;;;;;10.11;62.78;102775.98;1873039;77;20383;-63
2021/10/25 14:08:43;;;;;;;;;;;;;;;10.08;62.77;102778.63;1872995;77;20152;-63
2021/10/25 14:11:11;;;;;;;;;;;;;;;10.04;62.84;102780.39;1873045;77;20117;-64
2021/10/25 14:16:33;;;;;;;;;;;;;;;9.95;62.95;102787.00;1873049;77;20215;-63
2021/10/25 14:18:52;;;;;;;;;;;;;;;9.91;63.04;102791.85;1868251;76;20488;-62
2021/10/25 14:21:20;;;;;;;;;;;;;;;9.88;63.07;102797.11;1873033;76;20117;-63
2021/10/25 14:23:48;;;;;;;;;;;;;;;9.82;63.13;102795.38;1873066;77;20121;-63